Time;durP1;ratioP1;P1;durP2;ratioP2;P2;SDS_P1;SDS_P2;PMS_P1;PMS_P2;Temp;Humidity;BMP_temperature;BMP_pressure;BME280_temperature;BME280_humidity;BME280_pressure;Samples;Min_cycle;Max_cycle;Signal;HPM_P1;HPM_P2
2023/01/03 00:00:09;;;;;;;17.98;11.23;;;;;;;3.64;100.00;102393.00;6176414;23;20019;-84
2023/01/03 00:02:34;;;;;;;17.80;11.07;;;;;;;3.49;100.00;102375.41;6175319;23;20005;-84
2023/01/03 00:05:00;;;;;;;15.52;11.27;;;;;;;3.46;100.00;102374.50;6176170;23;20516;-84
2023/01/03 00:07:34;;;;;;;18.27;12.00;;;;;;;3.52;100.00;102386.81;6174519;23;20088;-84
2023/01/03 00:10:10;;;;;;;14.75;11.90;;;;;;;3.45;100.00;102384.16;6175617;23;20015;-84
2023/01/03 00:12:36;;;;;;;16.38;11.75;;;;;;;3.42;100.00;102388.53;6174063;23;20012;-84
2023/01/03 00:15:02;;;;;;;18.88;12.75;;;;;;;3.42;100.00;102391.16;6177187;23;20515;-84
2023/01/03 00:17:28;;;;;;;17.58;12.85;;;;;;;3.37;100.00;102383.25;6175178;23;20129;-84
2023/01/03 00:19:53;;;;;;;16.17;12.07;;;;;;;3.31;100.00;102382.38;6175093;23;20423;-84
2023/01/03 00:22:19;;;;;;;17.85;12.85;;;;;;;3.28;100.00;102393.75;6173949;23;19993;-84
2023/01/03 00:24:46;;;;;;;18.33;13.05;;;;;;;3.29;100.00;102400.75;6173852;23;20093;-84
2023/01/03 00:27:12;;;;;;;17.92;12.98;;;;;;;3.17;100.00;102387.56;6173989;23;20004;-84
2023/01/03 00:29:38;;;;;;;18.55;13.55;;;;;;;3.19;100.00;102398.97;6174808;23;20009;-84
2023/01/03 00:32:04;;;;;;;19.13;12.82;;;;;;;3.11;100.00;102379.66;6174940;23;20005;-84
2023/01/03 00:34:30;;;;;;;18.23;14.02;;;;;;;3.07;100.00;102391.03;6174670;23;20013;-84
2023/01/03 00:36:55;;;;;;;20.85;14.77;;;;;;;3.03;100.00;102395.38;6174543;23;20012;-84
2023/01/03 00:39:21;;;;;;;20.73;15.52;;;;;;;3.04;100.00;102399.78;6174903;23;20704;-84
2023/01/03 00:41:46;;;;;;;23.60;15.25;;;;;;;3.02;100.00;102404.16;6173656;23;20017;-84
2023/01/03 00:44:12;;;;;;;21.05;14.77;;;;;;;2.95;100.00;102397.09;6174837;23;20011;-84
2023/01/03 00:46:37;;;;;;;23.00;15.07;;;;;;;2.97;100.00;102403.25;6174666;23;20029;-84
2023/01/03 00:49:04;;;;;;;21.08;15.10;;;;;;;2.98;100.00;102405.88;6175396;23;20001;-84
2023/01/03 00:51:31;;;;;;;19.58;15.38;;;;;;;2.93;100.00;102394.47;6175299;23;20012;-84
2023/01/03 00:53:58;;;;;;;24.30;15.85;;;;;;;2.93;100.00;102401.47;6175514;23;20020;-84
2023/01/03 00:56:26;;;;;;;20.83;15.93;;;;;;;2.94;100.00;102414.63;6180951;23;20221;-85
2023/01/03 00:58:52;;;;;;;22.23;16.25;;;;;;;2.93;100.00;102417.25;6185855;23;20450;-84
2023/01/03 01:01:19;;;;;;;25.52;17.65;;;;;;;2.91;100.00;102411.09;6190213;23;20016;-85
2023/01/03 01:03:50;;;;;;;24.15;16.42;;;;;;;2.92;100.00;102411.09;6159785;23;20005;-85
2023/01/03 01:06:22;;;;;;;25.05;17.33;;;;;;;2.90;100.00;102415.47;6179150;23;20008;-84
2023/01/03 01:08:49;;;;;;;22.25;18.30;;;;;;;2.91;100.00;102413.72;6178938;23;20506;-84
2023/01/03 01:11:15;;;;;;;27.52;19.42;;;;;;;2.92;100.00;102420.75;6177753;23;20523;-85
2023/01/03 01:13:42;;;;;;;27.35;21.23;;;;;;;2.92;100.00;102415.47;6176487;23;20005;-85
2023/01/03 01:16:12;;;;;;;27.95;20.45;;;;;;;2.88;100.00;102424.22;6177847;23;20005;-85
2023/01/03 01:18:39;;;;;;;28.42;20.25;;;;;;;2.93;100.00;102427.78;6177209;23;20020;-85
2023/01/03 01:21:11;;;;;;;28.55;19.92;;;;;;;2.88;100.00;102422.47;6175903;23;20042;-85
2023/01/03 01:23:37;;;;;;;24.60;18.60;;;;;;;2.87;100.00;102430.38;6149181;23;20008;-85
2023/01/03 01:26:04;;;;;;;26.70;19.40;;;;;;;2.85;100.00;102426.84;6176516;23;20031;-84
2023/01/03 01:28:30;;;;;;;28.23;20.10;;;;;;;2.86;100.00;102432.13;6176246;23;20005;-85
2023/01/03 01:31:03;;;;;;;28.85;20.38;;;;;;;2.83;100.00;102439.09;6174785;23;20012;-84
2023/01/03 01:33:31;;;;;;;32.40;20.42;;;;;;;2.79;100.00;102440.81;6176565;23;20009;-85
2023/01/03 01:35:56;;;;;;;28.40;20.25;;;;;;;2.78;100.00;102441.69;6177306;23;20099;-84
2023/01/03 01:38:22;;;;;;;25.05;18.80;;;;;;;2.65;100.00;102435.47;6177791;23;20005;-84
2023/01/03 01:40:47;;;;;;;28.77;20.08;;;;;;;2.66;100.00;102436.34;6179541;23;20320;-84
2023/01/03 01:46:14;;;;;;;29.10;20.75;;;;;;;2.58;100.00;102445.94;6177523;23;20076;-84
2023/01/03 01:48:40;;;;;;;26.08;19.45;;;;;;;2.57;100.00;102455.56;6178002;23;20012;-85
2023/01/03 01:51:08;;;;;;;24.58;19.30;;;;;;;2.56;100.00;102463.44;6176050;23;20009;-84
2023/01/03 01:53:35;;;;;;;28.52;19.35;;;;;;;2.45;100.00;102448.47;6150477;23;20005;-84
2023/01/03 01:56:15;;;;;;;30.15;20.17;;;;;;;2.42;100.00;102451.06;6177862;23;20009;-84
2023/01/03 01:58:43;;;;;;;28.90;20.92;;;;;;;2.39;100.00;102461.56;6177022;23;20015;-84
2023/01/03 02:01:11;;;;;;;25.83;20.02;;;;;;;2.35;100.00;102457.16;6176343;23;20008;-85
2023/01/03 02:03:38;;;;;;;31.80;20.98;;;;;;;2.30;100.00;102468.47;6176331;23;20062;-84
2023/01/03 02:06:06;;;;;;;26.48;19.23;;;;;;;2.21;100.00;102458.75;6150806;23;20041;-84
2023/01/03 02:08:32;;;;;;;25.30;19.17;;;;;;;2.08;100.00;102468.25;6176650;23;20067;-85
2023/01/03 02:11:22;;;;;;;27.45;19.80;;;;;;;2.03;100.00;102469.09;6175430;23;20005;-84
2023/01/03 02:13:53;;;;;;;30.02;20.80;;;;;;;1.98;100.00;102469.03;6176349;23;20005;-84
2023/01/03 02:16:47;;;;;;;26.65;20.98;;;;;;;1.93;100.00;102476.00;6176242;23;20546;-84
2023/01/03 02:19:49;;;;;;;27.65;19.75;;;;;;;1.85;100.00;102462.78;6150097;23;20327;-84
2023/01/03 02:22:43;;;;;;;28.38;21.58;;;;;;;1.85;100.00;102467.16;6175321;23;20314;-84
2023/01/03 02:25:42;;;;;;;27.20;21.50;;;;;;;1.86;100.00;102480.28;6176937;23;20001;-84
2023/01/03 02:28:32;;;;;;;27.40;21.42;;;;;;;1.86;100.00;102474.16;6175969;23;20028;-84
2023/01/03 02:31:06;;;;;;;28.42;21.65;;;;;;;1.92;100.00;102479.47;6176008;23;20033;-84
2023/01/03 02:33:34;;;;;;;32.30;22.48;;;;;;;1.95;100.00;102472.50;6176127;23;20009;-84
2023/01/03 02:36:04;;;;;;;35.05;24.17;;;;;;;1.92;100.00;102469.88;6150417;23;20546;-84
2023/01/03 02:38:38;;;;;;;29.95;23.25;;;;;;;1.94;100.00;102477.75;6176586;23;20013;-84
2023/01/03 02:41:22;;;;;;;31.08;22.67;;;;;;;1.93;100.00;102476.00;6176092;23;20052;-84
2023/01/03 02:44:11;;;;;;;33.55;23.80;;;;;;;1.94;100.00;102481.25;6172960;23;20031;-84
2023/01/03 02:46:45;;;;;;;33.25;22.95;;;;;;;1.88;100.00;102470.69;6174470;23;20336;-84
2023/01/03 02:49:37;;;;;;;34.13;22.42;;;;;;;1.85;100.00;102469.78;6175657;23;20312;-84
2023/01/03 02:52:17;;;;;;;30.73;22.42;;;;;;;1.84;100.00;102476.78;6175579;23;20005;-84
2023/01/03 02:54:50;;;;;;;32.83;23.38;;;;;;;1.75;100.00;102461.78;6175614;23;20013;-84
2023/01/03 02:57:22;;;;;;;31.95;22.23;;;;;;;1.78;100.00;102466.19;6150066;23;20064;-84
2023/01/03 02:59:53;;;;;;;29.55;22.27;;;;;;;1.82;100.00;102469.72;6175532;23;20012;-84
2023/01/03 03:02:25;;;;;;;28.40;22.38;;;;;;;1.82;100.00;102462.72;6175797;23;20001;-85
2023/01/03 03:04:55;;;;;;;30.90;22.48;;;;;;;1.80;100.00;102458.31;6174846;23;20005;-84
2023/01/03 03:07:24;;;;;;;30.88;23.05;;;;;;;1.81;100.00;102466.22;6174867;23;20009;-85
2023/01/03 03:15:23;;;;;;;31.77;23.50;;;;;;;1.75;100.00;102453.91;6175647;23;19955;-84
2023/01/03 03:17:56;;;;;;;32.17;23.63;;;;;;;1.80;100.00;102463.56;6175823;23;20354;-84
2023/01/03 03:26:22;;;;;;;36.88;26.65;;;;;;;1.76;100.00;102465.31;6183927;23;20380;-85
2023/01/03 03:28:53;;;;;;;36.75;26.17;;;;;;;1.72;100.00;102460.88;6175577;23;20004;-85
2023/01/03 03:31:24;;;;;;;40.15;27.98;;;;;;;1.71;100.00;102462.63;6193484;23;20024;-85
2023/01/03 03:34:17;;;;;;;41.13;27.45;;;;;;;1.68;100.00;102453.84;6192671;23;20005;-85
2023/01/03 03:37:03;;;;;;;37.50;27.92;;;;;;;1.66;100.00;102458.16;6178702;23;20025;-85
2023/01/03 03:45:23;;;;;;;43.78;28.65;;;;;;;1.66;100.00;102466.91;6177998;23;20035;-84
2023/01/03 03:48:05;;;;;;;43.17;28.63;;;;;;;1.66;100.00;102466.91;6176153;23;20013;-84
2023/01/03 03:50:48;;;;;;;43.88;28.33;;;;;;;1.68;100.00;102467.84;6175416;23;20427;-85
2023/01/03 03:53:16;;;;;;;41.20;30.27;;;;;;;1.70;100.00;102473.09;6175979;23;20009;-85
2023/01/03 03:55:54;;;;;;;43.85;29.38;;;;;;;1.64;100.00;102471.28;6174841;23;20029;-84
2023/01/03 03:58:28;;;;;;;41.00;29.95;;;;;;;1.63;100.00;102471.25;6175327;23;20008;-85
2023/01/03 04:00:54;;;;;;;46.72;30.20;;;;;;;1.62;100.00;102474.75;6173340;23;20001;-84
2023/01/03 04:03:22;;;;;;;48.55;31.52;;;;;;;1.62;100.00;102461.63;6174762;23;20362;-84
2023/01/03 04:05:56;;;;;;;47.67;30.98;;;;;;;1.60;100.00;102469.50;6174477;23;20005;-85
2023/01/03 04:08:21;;;;;;;49.28;31.70;;;;;;;1.56;100.00;102465.06;6174639;23;20009;-84
2023/01/03 04:10:46;;;;;;;48.90;32.70;;;;;;;1.44;100.00;102452.66;6172795;23;20477;-85
2023/01/03 04:13:12;;;;;;;45.72;31.08;;;;;;;1.53;100.00;102467.63;6174469;23;20370;-85
2023/01/03 04:15:37;;;;;;;56.35;31.80;;;;;;;1.45;100.00;102470.16;6174112;23;20029;-84
2023/01/03 04:18:02;;;;;;;44.33;31.45;;;;;;;1.51;100.00;102474.63;6175442;23;20063;-84
2023/01/03 04:20:28;;;;;;;43.58;29.30;;;;;;;1.47;100.00;102483.31;6173881;23;20332;-84
2023/01/03 04:22:54;;;;;;;43.88;29.27;;;;;;;1.43;100.00;102468.41;6175511;23;19997;-84
2023/01/03 04:25:19;;;;;;;41.92;29.27;;;;;;;1.47;100.00;102475.44;6174467;23;20007;-85
2023/01/03 04:27:44;;;;;;;46.15;28.65;;;;;;;1.40;100.00;102470.97;6174567;23;20374;-85
2023/01/03 04:30:11;;;;;;;38.95;27.08;;;;;;;1.44;100.00;102471.03;6173685;23;20009;-84
2023/01/03 04:32:37;;;;;;;41.63;26.58;;;;;;;1.45;100.00;102466.66;6174437;23;20008;-85
2023/01/03 04:35:02;;;;;;;37.33;25.88;;;;;;;1.44;100.00;102471.03;6176251;23;20012;-85
2023/01/03 04:37:27;;;;;;;40.55;26.65;;;;;;;1.46;100.00;102474.56;6175259;23;20012;-85
2023/01/03 04:39:53;;;;;;;40.70;27.35;;;;;;;1.45;100.00;102472.78;6174269;23;20051;-85
2023/01/03 04:45:02;;;;;;;38.47;26.35;;;;;;;1.45;100.00;102475.41;6175765;23;20104;-84
2023/01/03 04:47:27;;;;;;;40.72;26.58;;;;;;;1.44;100.00;102475.41;6174347;23;20036;-84
2023/01/03 04:49:52;;;;;;;39.42;27.52;;;;;;;1.45;100.00;102479.78;6174934;23;20008;-84
2023/01/03 04:52:18;;;;;;;39.17;27.13;;;;;;;1.52;100.00;102483.38;6148778;23;20092;-85
2023/01/03 04:54:43;;;;;;;41.63;26.75;;;;;;;1.49;100.00;102471.09;6174880;23;20062;-85
2023/01/03 04:57:09;;;;;;;37.95;25.15;;;;;;;1.51;100.00;102481.63;6149547;23;20001;-85
2023/01/03 04:59:35;;;;;;;43.50;26.08;;;;;;;1.49;100.00;102476.34;6174018;23;20040;-85
2023/01/03 05:02:02;;;;;;;39.17;25.08;;;;;;;1.47;100.00;102470.19;6176603;23;20008;-85
2023/01/03 05:04:27;;;;;;;39.17;25.75;;;;;;;1.40;100.00;102473.59;6174958;23;20591;-85
2023/01/03 05:06:54;;;;;;;39.10;27.15;;;;;;;1.48;100.00;102466.72;6175536;23;20013;-85
2023/01/03 05:09:19;;;;;;;43.78;26.25;;;;;;;1.53;100.00;102459.75;6174991;23;20013;-85
2023/01/03 05:11:44;;;;;;;39.30;27.73;;;;;;;1.69;100.00;102466.09;6148674;23;20497;-85
2023/01/03 05:14:10;;;;;;;39.35;25.80;;;;;;;1.81;100.00;102458.34;6175722;23;20028;-85
2023/01/03 05:16:35;;;;;;;40.17;25.60;;;;;;;1.84;100.00;102458.41;6175799;23;20603;-84
2023/01/03 05:19:00;;;;;;;41.65;25.60;;;;;;;1.92;100.00;102462.00;6177503;23;20301;-84
2023/01/03 05:26:56;;;;;;;37.15;24.52;;;;;;;2.02;100.00;102451.56;6175067;23;20052;-84
2023/01/03 05:29:21;;;;;;;37.65;24.52;;;;;;;2.00;100.00;102454.16;6174604;23;20596;-84
2023/01/03 05:31:47;;;;;;;34.28;23.20;;;;;;;1.99;100.00;102436.66;6173815;23;20044;-84
2023/01/03 05:34:12;;;;;;;35.65;24.17;;;;;;;2.06;100.00;102443.72;6174594;23;20001;-84
2023/01/03 05:36:38;;;;;;;36.35;23.00;;;;;;;2.07;100.00;102447.25;6174275;23;20009;-84
2023/01/03 05:39:04;;;;;;;33.85;23.33;;;;;;;2.05;100.00;102443.69;6174553;23;20015;-84
2023/01/03 05:44:13;;;;;;;;;;;;;;;2.01;100.00;102442.81;6176186;23;20039;-84
2023/01/03 05:46:38;;;;;;;33.58;23.15;;;;;;;1.97;100.00;102436.66;6177279;23;19908;-84
2023/01/03 05:49:04;;;;;;;38.30;24.00;;;;;;;1.96;100.00;102437.50;6178675;23;20013;-83
2023/01/03 05:51:29;;;;;;;34.28;23.35;;;;;;;1.92;100.00;102440.97;6176475;23;20005;-84
2023/01/03 05:53:54;;;;;;;35.22;22.30;;;;;;;1.89;100.00;102451.44;6181047;23;20005;-84
2023/01/03 05:56:20;;;;;;;35.80;22.92;;;;;;;1.84;100.00;102444.34;6178331;23;20005;-84
2023/01/03 05:58:45;;;;;;;32.53;21.50;;;;;;;1.88;100.00;102441.81;6178995;23;20008;-84
2023/01/03 06:01:12;;;;;;;34.72;22.80;;;;;;;1.93;100.00;102436.59;6177900;23;20033;-84
2023/01/03 06:03:38;;;;;;;34.28;22.27;;;;;;;2.01;100.00;102432.31;6178864;23;20059;-83
2023/01/03 06:06:08;;;;;;;34.85;22.55;;;;;;;2.12;100.00;102427.16;6177622;23;20080;-84
2023/01/03 06:08:34;;;;;;;35.50;22.83;;;;;;;2.21;100.00;102429.84;6176076;23;20082;-84
2023/01/03 06:11:05;;;;;;;35.45;22.83;;;;;;;2.27;100.00;102427.28;6178270;23;20406;-84
2023/01/03 06:13:30;;;;;;;35.67;23.15;;;;;;;2.30;100.00;102426.41;6175168;23;20005;-84
2023/01/03 06:18:47;;;;;;;33.33;22.17;;;;;;;2.37;100.00;102413.34;6143920;23;20013;-83
2023/01/03 06:21:12;;;;;;;37.72;22.35;;;;;;;2.45;100.00;102424.81;6175726;23;20016;-84
2023/01/03 06:23:37;;;;;;;33.47;23.05;;;;;;;2.49;100.00;102428.34;6176953;23;20103;-84
2023/01/03 06:26:03;;;;;;;31.60;22.15;;;;;;;2.50;100.00;102428.34;6150790;23;20011;-84
2023/01/03 06:28:28;;;;;;;31.80;21.35;;;;;;;2.48;100.00;102416.94;6176150;23;20084;-84
2023/01/03 06:30:54;;;;;;;31.30;22.02;;;;;;;2.55;100.00;102422.25;6174844;23;20040;-84
2023/01/03 06:33:19;;;;;;;32.63;22.15;;;;;;;2.55;100.00;102415.25;6175787;23;20001;-84
2023/01/03 06:35:44;;;;;;;31.77;21.45;;;;;;;2.54;100.00;102418.72;6174890;23;20012;-84
2023/01/03 06:38:10;;;;;;;33.60;22.00;;;;;;;2.58;100.00;102415.25;6176619;23;20302;-84
2023/01/03 06:40:35;;;;;;;34.15;22.85;;;;;;;2.56;100.00;102410.88;6174437;23;20020;-84
2023/01/03 06:43:01;;;;;;;29.85;20.80;;;;;;;2.58;100.00;102417.00;6176739;23;20005;-84
2023/01/03 06:53:41;;;;;;;36.67;23.08;;;;;;;2.74;100.00;102442.53;6175581;23;19919;-83
2023/01/03 06:56:07;;;;;;;37.88;23.02;;;;;;;2.78;100.00;102433.81;6176770;23;20009;-83
2023/01/03 06:58:34;;;;;;;34.30;23.20;;;;;;;2.83;100.00;102431.22;6175641;23;20013;-84
2023/01/03 07:01:02;;;;;;;33.15;23.08;;;;;;;2.86;100.00;102424.22;6177975;23;20008;-84
2023/01/03 07:03:27;;;;;;;32.92;22.02;;;;;;;2.89;100.00;102410.22;6184856;23;20004;-84
2023/01/03 07:05:52;;;;;;;36.13;23.02;;;;;;;2.92;100.00;102397.06;6196940;23;20028;-85
2023/01/03 07:08:18;;;;;;;38.55;23.90;;;;;;;2.91;100.00;102387.44;6155257;23;20009;-85
2023/01/03 07:10:44;;;;;;;34.50;23.80;;;;;;;2.95;100.00;102411.13;6185227;23;20084;-85
2023/01/03 07:15:53;;;;;;;33.22;22.67;;;;;;;2.79;100.00;102411.03;6175255;23;20047;-84
2023/01/03 07:18:18;;;;;;;34.80;23.27;;;;;;;2.74;100.00;102418.88;6175065;23;20004;-84
2023/01/03 07:20:44;;;;;;;35.85;23.38;;;;;;;2.78;100.00;102422.41;6147364;23;20063;-84
2023/01/03 07:23:11;;;;;;;35.20;24.33;;;;;;;2.88;100.00;102443.50;6176740;23;20001;-84
2023/01/03 07:25:40;;;;;;;43.65;26.80;;;;;;;2.89;100.00;102431.28;6176570;23;20012;-84
2023/01/03 07:28:10;;;;;;;41.92;26.20;;;;;;;3.00;100.00;102451.47;6176056;23;20005;-83
2023/01/03 07:30:40;;;;;;;43.85;26.73;;;;;;;3.05;100.00;102448.00;6174644;23;20009;-84
2023/01/03 07:33:08;;;;;;;39.35;26.02;;;;;;;3.10;100.00;102456.81;6175960;23;20036;-84
2023/01/03 07:35:34;;;;;;;41.40;26.08;;;;;;;3.11;100.00;102446.28;6175748;23;20005;-84
2023/01/03 07:37:59;;;;;;;38.60;25.52;;;;;;;3.13;100.00;102444.53;6176761;23;20430;-84
2023/01/03 07:40:24;;;;;;;40.83;26.27;;;;;;;3.17;100.00;102440.19;6173511;23;20020;-85
2023/01/03 07:45:34;;;;;;;;;;;;;;;3.19;100.00;102441.94;6175818;23;20501;-83
2023/01/03 07:47:59;;;;;;;41.42;25.45;;;;;;;3.19;100.00;102433.19;6174136;23;19908;-84
2023/01/03 07:50:24;;;;;;;41.08;25.17;;;;;;;3.16;100.00;102436.66;6173451;23;20065;-84
2023/01/03 07:52:50;;;;;;;42.05;25.90;;;;;;;3.20;100.00;102443.72;6174956;23;20005;-83
2023/01/03 07:55:15;;;;;;;42.92;27.05;;;;;;;3.21;100.00;102449.84;6176079;23;20005;-84
2023/01/03 07:57:40;;;;;;;43.08;25.63;;;;;;;3.23;100.00;102456.88;6175803;23;20087;-83
2023/01/03 08:00:06;;;;;;;40.00;25.08;;;;;;;3.20;100.00;102448.09;6173056;23;20374;-83
2023/01/03 08:02:31;;;;;;;43.67;26.42;;;;;;;3.16;100.00;102455.09;6174376;23;20027;-84
2023/01/03 08:04:57;;;;;;;46.50;25.90;;;;;;;3.07;100.00;102449.78;6176763;23;20419;-84
2023/01/03 08:07:22;;;;;;;49.92;27.23;;;;;;;3.09;100.00;102463.81;6179036;23;20005;-83
2023/01/03 08:15:15;;;;;;;;;;;;;;;3.02;100.00;102469.03;6180021;23;20040;-84
2023/01/03 08:17:40;;;;;;;46.90;26.90;;;;;;;3.16;100.00;102476.13;6148786;23;20309;-84
2023/01/03 08:20:06;;;;;;;50.67;28.35;;;;;;;3.25;100.00;102475.31;6175614;23;20013;-84
2023/01/03 08:22:32;;;;;;;52.75;27.88;;;;;;;3.36;100.00;102483.28;6174418;23;20001;-84
2023/01/03 08:24:58;;;;;;;56.83;29.35;;;;;;;3.45;100.00;102481.56;6177273;23;20051;-83
2023/01/03 08:27:23;;;;;;;52.90;27.95;;;;;;;3.54;100.00;102477.19;6176322;23;20280;-84
2023/01/03 08:29:48;;;;;;;51.70;28.35;;;;;;;3.64;100.00;102481.66;6176718;23;20596;-83
2023/01/03 08:32:15;;;;;;;52.42;28.35;;;;;;;3.66;100.00;102474.63;6178011;23;20251;-84
2023/01/03 08:34:43;;;;;;;51.83;27.60;;;;;;;3.65;100.00;102463.22;6175549;23;20004;-83
2023/01/03 08:37:11;;;;;;;50.50;27.20;;;;;;;3.77;100.00;102467.66;6175471;23;20379;-85
2023/01/03 08:39:42;;;;;;;53.47;28.00;;;;;;;3.85;100.00;102475.59;6172932;23;20009;-83
2023/01/03 08:42:09;;;;;;;50.83;26.95;;;;;;;3.87;100.00;102473.81;6172832;23;20426;-84
2023/01/03 08:44:35;;;;;;;47.25;25.92;;;;;;;3.89;100.00;102470.31;6147503;23;20005;-83
2023/01/03 08:47:03;;;;;;;43.67;24.85;;;;;;;3.96;100.00;102482.63;6148412;23;20011;-83
2023/01/03 08:49:29;;;;;;;46.22;25.10;;;;;;;4.05;100.00;102486.16;6173269;23;20324;-84
2023/01/03 08:51:55;;;;;;;45.70;23.80;;;;;;;4.06;100.00;102485.28;6172706;23;20020;-86
2023/01/03 08:54:20;;;;;;;43.22;24.77;;;;;;;4.14;100.00;102488.78;6174955;23;20012;-86
2023/01/03 08:56:45;;;;;;;43.72;23.63;;;;;;;4.15;100.00;102490.56;6173718;23;20009;-83
2023/01/03 08:59:11;;;;;;;43.75;23.95;;;;;;;4.09;100.00;102480.00;6173995;23;20001;-85
2023/01/03 09:01:36;;;;;;;43.92;23.17;;;;;;;4.21;100.00;102499.34;6171489;23;20013;-83
2023/01/03 09:04:01;;;;;;;39.65;23.02;;;;;;;4.22;100.00;102502.88;6175180;23;20028;-84
2023/01/03 09:06:26;;;;;;;41.22;23.52;;;;;;;4.30;100.00;102498.50;6174633;23;20080;-83
2023/01/03 09:08:52;;;;;;;37.13;22.60;;;;;;;4.33;100.00;102495.88;6171543;23;20055;-86
2023/01/03 09:11:17;;;;;;;40.72;23.10;;;;;;;4.35;100.00;102496.78;6144811;23;20001;-85
2023/01/03 09:13:42;;;;;;;36.63;21.80;;;;;;;4.37;100.00;102496.75;6173511;23;20004;-85
2023/01/03 09:16:10;;;;;;;36.70;21.80;;;;;;;4.43;100.00;102496.75;6173823;23;20386;-84
2023/01/03 09:18:36;;;;;;;34.05;22.05;;;;;;;4.48;100.00;102501.16;6171128;23;20001;-83
2023/01/03 09:21:03;;;;;;;39.30;22.25;;;;;;;4.53;100.00;102508.22;6173544;23;20001;-81
2023/01/03 09:23:30;;;;;;;30.83;21.25;;;;;;;4.58;100.00;102506.44;6169794;23;20088;-82
2023/01/03 09:25:55;;;;;;;34.47;21.45;;;;;;;4.60;100.00;102509.94;6145877;23;20016;-83
2023/01/03 09:28:20;;;;;;;34.35;22.10;;;;;;;4.63;100.00;102515.22;6172741;23;20541;-85
2023/01/03 09:30:46;;;;;;;30.83;20.98;;;;;;;4.66;100.00;102515.25;6171577;23;20427;-84
2023/01/03 09:33:11;;;;;;;30.48;20.58;;;;;;;4.63;100.00;102496.78;6173678;23;20005;-84
2023/01/03 09:35:37;;;;;;;34.05;20.65;;;;;;;4.75;100.00;102509.97;6171841;23;20013;-82
2023/01/03 09:38:02;;;;;;;31.38;20.80;;;;;;;4.79;100.00;102511.72;6172913;23;20005;-82
2023/01/03 09:40:37;;;;;;;29.45;20.35;;;;;;;4.85;100.00;102505.53;6145750;23;20255;-81
2023/01/03 09:43:13;;;;;;;28.17;19.63;;;;;;;4.89;100.00;102507.31;6173670;23;20049;-84
2023/01/03 09:45:44;;;;;;;28.80;19.45;;;;;;;4.91;100.00;102509.06;6174770;23;20382;-85
2023/01/03 09:48:24;;;;;;;32.05;19.85;;;;;;;4.92;100.00;102516.09;6173566;23;20005;-83
2023/01/03 09:50:49;;;;;;;29.23;19.05;;;;;;;4.94;100.00;102517.00;6175191;23;20009;-87
2023/01/03 10:05:22;;;;;;;25.67;19.75;;;;;;;5.20;100.00;102509.03;6175280;23;20023;-85
2023/01/03 10:08:09;;;;;;;26.85;18.35;;;;;;;5.26;100.00;102508.13;6175088;23;20012;-84
2023/01/03 10:10:54;;;;;;;23.45;17.33;;;;;;;5.31;100.00;102505.47;6175394;23;20019;-85
2023/01/03 10:13:22;;;;;;;25.42;16.77;;;;;;;5.33;100.00;102507.25;6175638;23;20012;-84
2023/01/03 10:16:25;;;;;;;26.08;17.02;;;;;;;5.38;100.00;102513.38;6175704;23;20012;-85
2023/01/03 10:19:09;;;;;;;22.30;15.98;;;;;;;5.43;100.00;102501.06;6174880;23;20001;-85
2023/01/03 10:21:52;;;;;;;24.33;17.38;;;;;;;5.48;100.00;102507.22;6152317;23;20016;-83
2023/01/03 10:24:23;;;;;;;23.70;15.85;;;;;;;5.51;100.00;102511.59;6179089;23;19996;-83
2023/01/03 10:26:55;;;;;;;19.70;14.20;;;;;;;5.53;100.00;102503.69;6179634;23;20631;-84
2023/01/03 10:29:21;;;;;;;22.33;14.93;;;;;;;5.58;100.00;102520.38;6178405;23;20047;-83
2023/01/03 10:32:05;;;;;;;23.02;14.25;;;;;;;5.64;100.00;102502.75;6179201;23;20009;-83
2023/01/03 10:34:30;;;;;;;21.05;14.52;;;;;;;5.71;100.00;102506.25;6178133;23;20016;-82
2023/01/03 10:36:55;;;;;;;22.80;14.43;;;;;;;5.75;100.00;102503.56;6179400;23;20013;-83
2023/01/03 10:39:30;;;;;;;20.73;13.38;;;;;;;5.79;100.00;102499.16;6178478;23;20005;-82
2023/01/03 10:41:59;;;;;;;17.38;13.35;;;;;;;5.87;100.00;102501.78;6154073;23;20013;-81
2023/01/03 10:44:30;;;;;;;20.75;13.70;;;;;;;5.90;100.00;102502.63;6178870;23;20085;-80
2023/01/03 10:46:58;;;;;;;18.83;12.68;;;;;;;5.93;100.00;102491.19;6179731;23;20024;-81
2023/01/03 10:49:27;;;;;;;18.05;11.93;;;;;;;5.99;100.00;102499.09;6181417;23;20004;-86
2023/01/03 10:51:56;;;;;;;16.52;11.43;;;;;;;6.02;100.00;102501.72;6181195;23;20016;-82
2023/01/03 10:54:34;;;;;;;15.75;11.93;;;;;;;6.11;100.00;102499.03;6176746;23;20095;-82
2023/01/03 10:57:00;;;;;;;15.77;11.55;;;;;;;6.14;100.00;102482.25;6175079;23;20090;-82
2023/01/03 10:59:28;;;;;;;15.55;11.07;;;;;;;6.27;100.00;102480.41;6147969;23;20001;-82
2023/01/03 11:01:56;;;;;;;16.77;10.80;;;;;;;6.38;100.00;102483.88;6176643;23;20118;-82
2023/01/03 11:04:22;;;;;;;14.07;10.30;;;;;;;6.39;100.00;102486.47;6175806;23;20005;-82
2023/01/03 11:07:01;;;;;;;17.70;11.85;;;;;;;6.43;100.00;102482.06;6176582;23;20008;-82
2023/01/03 11:09:33;;;;;;;14.30;10.20;;;;;;;6.38;100.00;102487.38;6148724;23;20055;-81
2023/01/03 11:12:04;;;;;;;14.35;9.68;;;;;;;6.31;100.00;102485.69;6149936;23;20084;-84
2023/01/03 11:14:29;;;;;;;15.90;9.75;;;;;;;6.31;100.00;102483.06;6175367;23;19997;-84
2023/01/03 11:17:03;;;;;;;16.88;10.38;;;;;;;6.30;100.00;102480.38;6176598;23;20015;-85
2023/01/03 11:19:31;;;;;;;14.90;10.73;;;;;;;6.32;100.00;102479.50;6148471;23;20334;-84
2023/01/03 11:22:32;;;;;;;15.18;10.60;;;;;;;6.31;100.00;102475.13;6149712;23;20051;-85
2023/01/03 11:25:25;;;;;;;17.30;10.80;;;;;;;6.41;100.00;102476.78;6175942;23;20005;-85
2023/01/03 11:28:19;;;;;;;16.05;10.57;;;;;;;6.39;100.00;102483.84;6175399;23;20430;-84
2023/01/03 11:31:07;;;;;;;16.38;11.15;;;;;;;6.40;100.00;102472.41;6176437;23;20009;-83
2023/01/03 11:33:38;;;;;;;14.85;10.88;;;;;;;6.41;100.00;102476.78;6175644;23;20099;-84
2023/01/03 11:36:13;;;;;;;16.25;11.88;;;;;;;6.39;100.00;102473.25;6175685;23;20008;-84
2023/01/03 11:39:01;;;;;;;15.02;11.07;;;;;;;6.38;100.00;102473.28;6174323;23;20009;-84
2023/01/03 11:41:45;;;;;;;15.45;11.32;;;;;;;6.36;100.00;102473.31;6174585;23;20021;-85
2023/01/03 11:44:42;;;;;;;15.00;10.90;;;;;;;6.40;100.00;102467.09;6176743;23;20008;-85
2023/01/03 11:47:21;;;;;;;18.20;11.68;;;;;;;6.44;100.00;102463.53;6003162;23;20618;-86
2023/01/03 11:49:52;;;;;;;15.73;10.63;;;;;;;6.44;100.00;102467.97;6029936;23;20030;-85
2023/01/03 11:52:29;;;;;;;14.98;10.82;;;;;;;6.40;100.00;102466.22;6004180;23;20007;-86
2023/01/03 11:55:04;;;;;;;14.10;10.70;;;;;;;6.39;100.00;102461.81;6027080;23;20090;-89
2023/01/03 11:57:49;;;;;;;12.45;10.82;;;;;;;6.36;100.00;102456.56;6027970;23;20521;-91
2023/01/03 12:00:30;;;;;;;14.65;11.10;;;;;;;6.34;100.00;102459.19;6028357;23;20011;-89
2023/01/03 12:03:05;;;;;;;16.25;11.68;;;;;;;6.34;100.00;102453.91;6025490;23;20342;-89
2023/01/03 12:05:42;;;;;;;15.13;10.82;;;;;;;6.33;100.00;102449.53;6025560;23;20391;-88
2023/01/03 12:08:10;;;;;;;15.23;11.77;;;;;;;6.31;100.00;102446.03;6026473;23;20007;-89
2023/01/03 12:10:45;;;;;;;16.45;11.50;;;;;;;6.21;100.00;102431.09;6025952;23;20091;-87
2023/01/03 12:13:34;;;;;;;17.42;11.73;;;;;;;6.27;100.00;102446.94;6029136;23;20007;-90
2023/01/03 12:16:09;;;;;;;16.20;11.60;;;;;;;6.27;100.00;102444.28;6002862;23;20100;-88
2023/01/03 12:18:40;;;;;;;22.38;14.00;;;;;;;6.20;100.00;102435.50;6025634;23;20011;-87
2023/01/03 12:21:36;;;;;;;18.77;13.40;;;;;;;6.18;100.00;102429.34;6026520;23;20086;-86
2023/01/03 12:24:27;;;;;;;18.88;13.60;;;;;;;6.24;100.00;102433.72;6075341;23;20011;-86
2023/01/03 12:27:01;;;;;;;21.70;13.73;;;;;;;6.20;100.00;102418.78;6175520;23;20004;-92